sensor_id;sensor_type;location;lat;lon;timestamp;temperature;humidity
61004;DHT22;46889;37.310;13.582;2023-09-07T00:00:32;23.20;99.90
61004;DHT22;46889;37.310;13.582;2023-09-07T00:02:58;23.20;99.90
61004;DHT22;46889;37.310;13.582;2023-09-07T00:05:25;23.20;99.90
61004;DHT22;46889;37.310;13.582;2023-09-07T00:07:51;23.20;99.90
61004;DHT22;46889;37.310;13.582;2023-09-07T00:10:17;23.20;99.90
61004;DHT22;46889;37.310;13.582;2023-09-07T00:12:43;23.20;99.90
61004;DHT22;46889;37.310;13.582;2023-09-07T00:15:09;23.30;99.90
61004;DHT22;46889;37.310;13.582;2023-09-07T00:17:36;23.40;99.90
61004;DHT22;46889;37.310;13.582;2023-09-07T00:20:02;23.40;99.90
61004;DHT22;46889;37.310;13.582;2023-09-07T00:22:36;23.40;99.90
61004;DHT22;46889;37.310;13.582;2023-09-07T00:25:01;23.40;99.90
61004;DHT22;46889;37.310;13.582;2023-09-07T00:27:29;23.50;99.90
61004;DHT22;46889;37.310;13.582;2023-09-07T00:29:55;23.50;99.90
61004;DHT22;46889;37.310;13.582;2023-09-07T00:32:21;23.50;99.90
61004;DHT22;46889;37.310;13.582;2023-09-07T00:34:47;23.50;99.90
61004;DHT22;46889;37.310;13.582;2023-09-07T00:37:12;23.50;99.90
61004;DHT22;46889;37.310;13.582;2023-09-07T00:39:38;23.50;99.90
61004;DHT22;46889;37.310;13.582;2023-09-07T00:42:04;23.50;99.90
61004;DHT22;46889;37.310;13.582;2023-09-07T00:44:30;23.40;99.90
61004;DHT22;46889;37.310;13.582;2023-09-07T00:46:56;23.40;99.90
61004;DHT22;46889;37.310;13.582;2023-09-07T00:49:22;23.40;99.90
61004;DHT22;46889;37.310;13.582;2023-09-07T00:51:48;23.50;99.90
61004;DHT22;46889;37.310;13.582;2023-09-07T00:54:14;23.50;99.90
61004;DHT22;46889;37.310;13.582;2023-09-07T00:56:40;23.50;99.90
61004;DHT22;46889;37.310;13.582;2023-09-07T00:59:06;23.40;99.90
61004;DHT22;46889;37.310;13.582;2023-09-07T01:01:32;23.40;99.90
61004;DHT22;46889;37.310;13.582;2023-09-07T01:03:58;23.40;99.90
61004;DHT22;46889;37.310;13.582;2023-09-07T01:06:27;23.40;99.90
61004;DHT22;46889;37.310;13.582;2023-09-07T01:08:55;23.40;99.90
61004;DHT22;46889;37.310;13.582;2023-09-07T01:11:23;23.50;99.90
61004;DHT22;46889;37.310;13.582;2023-09-07T01:13:49;23.50;99.90
61004;DHT22;46889;37.310;13.582;2023-09-07T01:16:15;23.50;99.90
61004;DHT22;46889;37.310;13.582;2023-09-07T01:18:42;23.50;99.90
61004;DHT22;46889;37.310;13.582;2023-09-07T01:21:08;23.60;99.90
61004;DHT22;46889;37.310;13.582;2023-09-07T01:23:37;23.60;99.90
61004;DHT22;46889;37.310;13.582;2023-09-07T01:26:05;23.60;99.90
61004;DHT22;46889;37.310;13.582;2023-09-07T01:28:31;23.60;99.90
61004;DHT22;46889;37.310;13.582;2023-09-07T01:30:56;23.70;99.90
61004;DHT22;46889;37.310;13.582;2023-09-07T01:33:24;23.70;99.90
61004;DHT22;46889;37.310;13.582;2023-09-07T01:35:50;23.70;99.90
61004;DHT22;46889;37.310;13.582;2023-09-07T01:38:15;23.70;99.90
61004;DHT22;46889;37.310;13.582;2023-09-07T01:40:41;23.60;99.90
61004;DHT22;46889;37.310;13.582;2023-09-07T01:43:07;23.70;99.90
61004;DHT22;46889;37.310;13.582;2023-09-07T01:45:33;23.70;99.90
61004;DHT22;46889;37.310;13.582;2023-09-07T01:47:59;23.70;99.90
61004;DHT22;46889;37.310;13.582;2023-09-07T01:50:25;23.60;99.90
61004;DHT22;46889;37.310;13.582;2023-09-07T01:52:51;23.60;99.90
61004;DHT22;46889;37.310;13.582;2023-09-07T01:55:17;23.60;99.90
61004;DHT22;46889;37.310;13.582;2023-09-07T01:57:43;23.50;99.90
61004;DHT22;46889;37.310;13.582;2023-09-07T02:00:09;23.50;99.90
61004;DHT22;46889;37.310;13.582;2023-09-07T02:02:35;23.50;99.90
61004;DHT22;46889;37.310;13.582;2023-09-07T02:05:01;23.50;99.90
61004;DHT22;46889;37.310;13.582;2023-09-07T02:07:27;23.60;99.90
61004;DHT22;46889;37.310;13.582;2023-09-07T02:09:53;23.50;99.90
61004;DHT22;46889;37.310;13.582;2023-09-07T02:12:19;23.50;99.90
61004;DHT22;46889;37.310;13.582;2023-09-07T02:14:44;23.50;99.90
61004;DHT22;46889;37.310;13.582;2023-09-07T02:17:10;23.50;99.90
61004;DHT22;46889;37.310;13.582;2023-09-07T02:19:39;23.50;99.90
61004;DHT22;46889;37.310;13.582;2023-09-07T02:22:05;23.60;99.90
61004;DHT22;46889;37.310;13.582;2023-09-07T02:24:31;23.60;99.90
61004;DHT22;46889;37.310;13.582;2023-09-07T02:26:56;23.60;99.90
61004;DHT22;46889;37.310;13.582;2023-09-07T02:29:22;23.60;99.90
61004;DHT22;46889;37.310;13.582;2023-09-07T02:31:48;23.60;99.90
61004;DHT22;46889;37.310;13.582;2023-09-07T02:34:14;23.60;99.90
61004;DHT22;46889;37.310;13.582;2023-09-07T02:36:40;23.60;99.90
61004;DHT22;46889;37.310;13.582;2023-09-07T02:39:05;23.60;99.90
61004;DHT22;46889;37.310;13.582;2023-09-07T02:41:33;23.60;99.90
61004;DHT22;46889;37.310;13.582;2023-09-07T02:43:59;23.60;99.90
61004;DHT22;46889;37.310;13.582;2023-09-07T02:46:25;23.50;99.90
61004;DHT22;46889;37.310;13.582;2023-09-07T02:48:51;23.50;99.90
61004;DHT22;46889;37.310;13.582;2023-09-07T02:51:17;23.60;99.90
61004;DHT22;46889;37.310;13.582;2023-09-07T02:53:43;23.60;99.90
61004;DHT22;46889;37.310;13.582;2023-09-07T02:56:09;23.60;99.90
61004;DHT22;46889;37.310;13.582;2023-09-07T02:58:36;23.50;99.90
61004;DHT22;46889;37.310;13.582;2023-09-07T03:01:05;23.50;99.90
61004;DHT22;46889;37.310;13.582;2023-09-07T03:03:31;23.50;99.90
61004;DHT22;46889;37.310;13.582;2023-09-07T03:05:57;23.50;99.90
61004;DHT22;46889;37.310;13.582;2023-09-07T03:08:22;23.50;99.90
61004;DHT22;46889;37.310;13.582;2023-09-07T03:10:50;23.60;99.90
61004;DHT22;46889;37.310;13.582;2023-09-07T03:13:16;23.60;99.90
61004;DHT22;46889;37.310;13.582;2023-09-07T03:15:41;23.60;99.90
61004;DHT22;46889;37.310;13.582;2023-09-07T03:18:07;23.60;99.90
61004;DHT22;46889;37.310;13.582;2023-09-07T03:20:33;23.60;99.90
61004;DHT22;46889;37.310;13.582;2023-09-07T03:22:59;23.70;99.90
61004;DHT22;46889;37.310;13.582;2023-09-07T03:25:25;23.60;99.90
61004;DHT22;46889;37.310;13.582;2023-09-07T03:27:51;23.60;99.90
61004;DHT22;46889;37.310;13.582;2023-09-07T03:30:17;23.60;99.90
61004;DHT22;46889;37.310;13.582;2023-09-07T03:32:42;23.60;99.90
61004;DHT22;46889;37.310;13.582;2023-09-07T03:35:08;23.70;99.90
61004;DHT22;46889;37.310;13.582;2023-09-07T03:37:35;23.70;99.90
61004;DHT22;46889;37.310;13.582;2023-09-07T03:40:01;23.70;99.90
61004;DHT22;46889;37.310;13.582;2023-09-07T03:42:27;23.60;99.90
61004;DHT22;46889;37.310;13.582;2023-09-07T03:44:52;23.60;99.90
61004;DHT22;46889;37.310;13.582;2023-09-07T03:47:18;23.60;99.90
61004;DHT22;46889;37.310;13.582;2023-09-07T03:49:44;23.60;99.90
61004;DHT22;46889;37.310;13.582;2023-09-07T03:52:10;23.60;99.90
61004;DHT22;46889;37.310;13.582;2023-09-07T03:54:37;23.60;99.90
61004;DHT22;46889;37.310;13.582;2023-09-07T03:57:03;23.70;99.90
61004;DHT22;46889;37.310;13.582;2023-09-07T03:59:29;23.70;99.90
61004;DHT22;46889;37.310;13.582;2023-09-07T04:01:55;23.70;99.90
61004;DHT22;46889;37.310;13.582;2023-09-07T04:04:21;23.70;99.90
61004;DHT22;46889;37.310;13.582;2023-09-07T04:06:47;23.70;99.90
61004;DHT22;46889;37.310;13.582;2023-09-07T04:09:15;23.70;99.90
61004;DHT22;46889;37.310;13.582;2023-09-07T04:11:41;23.70;99.90
61004;DHT22;46889;37.310;13.582;2023-09-07T04:14:08;23.70;99.90
61004;DHT22;46889;37.310;13.582;2023-09-07T04:16:34;23.80;99.90
61004;DHT22;46889;37.310;13.582;2023-09-07T04:18:59;23.80;99.90
61004;DHT22;46889;37.310;13.582;2023-09-07T04:21:25;23.80;99.90
61004;DHT22;46889;37.310;13.582;2023-09-07T04:23:51;23.80;99.90
61004;DHT22;46889;37.310;13.582;2023-09-07T04:26:17;23.90;99.90
61004;DHT22;46889;37.310;13.582;2023-09-07T04:28:43;23.90;99.90
61004;DHT22;46889;37.310;13.582;2023-09-07T04:31:08;23.80;99.90
61004;DHT22;46889;37.310;13.582;2023-09-07T04:33:34;23.80;99.90
61004;DHT22;46889;37.310;13.582;2023-09-07T04:36:09;23.80;99.90
61004;DHT22;46889;37.310;13.582;2023-09-07T04:38:36;23.80;99.90
61004;DHT22;46889;37.310;13.582;2023-09-07T04:41:05;23.90;99.90
61004;DHT22;46889;37.310;13.582;2023-09-07T04:43:31;23.80;99.90
61004;DHT22;46889;37.310;13.582;2023-09-07T04:45:57;23.90;99.90
61004;DHT22;46889;37.310;13.582;2023-09-07T04:48:22;23.90;99.90
61004;DHT22;46889;37.310;13.582;2023-09-07T04:50:48;23.90;99.90
61004;DHT22;46889;37.310;13.582;2023-09-07T04:53:14;23.90;99.90
61004;DHT22;46889;37.310;13.582;2023-09-07T04:55:40;23.90;99.90
61004;DHT22;46889;37.310;13.582;2023-09-07T04:58:06;23.90;99.90
61004;DHT22;46889;37.310;13.582;2023-09-07T05:00:32;24.00;99.90
61004;DHT22;46889;37.310;13.582;2023-09-07T05:02:58;24.00;99.90
61004;DHT22;46889;37.310;13.582;2023-09-07T05:05:24;24.00;99.90
61004;DHT22;46889;37.310;13.582;2023-09-07T05:07:50;24.00;99.90
61004;DHT22;46889;37.310;13.582;2023-09-07T05:10:15;24.10;99.90
61004;DHT22;46889;37.310;13.582;2023-09-07T05:12:41;24.00;99.90
61004;DHT22;46889;37.310;13.582;2023-09-07T05:15:07;24.00;99.90
61004;DHT22;46889;37.310;13.582;2023-09-07T05:17:33;24.00;99.90
61004;DHT22;46889;37.310;13.582;2023-09-07T05:19:59;24.00;99.90
61004;DHT22;46889;37.310;13.582;2023-09-07T05:22:25;24.00;99.90
61004;DHT22;46889;37.310;13.582;2023-09-07T05:24:51;24.00;99.90
61004;DHT22;46889;37.310;13.582;2023-09-07T05:27:17;24.00;99.90
61004;DHT22;46889;37.310;13.582;2023-09-07T05:29:43;24.00;99.90
61004;DHT22;46889;37.310;13.582;2023-09-07T05:32:09;24.00;99.90
61004;DHT22;46889;37.310;13.582;2023-09-07T05:34:35;24.00;99.90
61004;DHT22;46889;37.310;13.582;2023-09-07T05:37:01;24.00;99.90
61004;DHT22;46889;37.310;13.582;2023-09-07T05:39:27;23.90;99.90
61004;DHT22;46889;37.310;13.582;2023-09-07T05:41:53;24.00;99.90
61004;DHT22;46889;37.310;13.582;2023-09-07T05:44:18;24.10;99.90
61004;DHT22;46889;37.310;13.582;2023-09-07T05:46:44;24.00;99.90
61004;DHT22;46889;37.310;13.582;2023-09-07T05:49:10;24.00;99.90
61004;DHT22;46889;37.310;13.582;2023-09-07T05:51:36;24.00;99.90
61004;DHT22;46889;37.310;13.582;2023-09-07T05:54:02;24.00;99.90
61004;DHT22;46889;37.310;13.582;2023-09-07T05:56:28;24.00;99.90
61004;DHT22;46889;37.310;13.582;2023-09-07T05:58:55;24.10;99.90
61004;DHT22;46889;37.310;13.582;2023-09-07T06:01:21;24.20;99.90
61004;DHT22;46889;37.310;13.582;2023-09-07T06:03:47;24.30;99.90
61004;DHT22;46889;37.310;13.582;2023-09-07T06:06:13;24.30;99.90
61004;DHT22;46889;37.310;13.582;2023-09-07T06:08:38;24.80;99.90
61004;DHT22;46889;37.310;13.582;2023-09-07T06:11:04;26.00;99.90
61004;DHT22;46889;37.310;13.582;2023-09-07T06:13:31;27.60;99.90
61004;DHT22;46889;37.310;13.582;2023-09-07T06:15:57;28.70;99.90
61004;DHT22;46889;37.310;13.582;2023-09-07T06:18:22;29.00;99.90
61004;DHT22;46889;37.310;13.582;2023-09-07T06:20:48;30.20;99.90
61004;DHT22;46889;37.310;13.582;2023-09-07T06:23:15;30.40;99.90
61004;DHT22;46889;37.310;13.582;2023-09-07T06:25:41;30.70;99.90
61004;DHT22;46889;37.310;13.582;2023-09-07T06:28:06;30.80;99.90
61004;DHT22;46889;37.310;13.582;2023-09-07T06:30:32;30.00;99.90
61004;DHT22;46889;37.310;13.582;2023-09-07T06:32:59;30.30;99.90
61004;DHT22;46889;37.310;13.582;2023-09-07T06:35:24;30.00;99.90
61004;DHT22;46889;37.310;13.582;2023-09-07T06:37:50;30.70;99.90
61004;DHT22;46889;37.310;13.582;2023-09-07T06:40:16;30.60;99.90
61004;DHT22;46889;37.310;13.582;2023-09-07T06:42:43;30.80;99.90
61004;DHT22;46889;37.310;13.582;2023-09-07T06:45:09;30.50;99.90
61004;DHT22;46889;37.310;13.582;2023-09-07T06:47:35;30.10;99.90
61004;DHT22;46889;37.310;13.582;2023-09-07T06:50:01;29.50;99.90
61004;DHT22;46889;37.310;13.582;2023-09-07T06:52:27;29.70;99.90
61004;DHT22;46889;37.310;13.582;2023-09-07T06:54:53;30.30;99.90
61004;DHT22;46889;37.310;13.582;2023-09-07T06:57:19;31.10;99.90
61004;DHT22;46889;37.310;13.582;2023-09-07T06:59:45;31.70;99.90
61004;DHT22;46889;37.310;13.582;2023-09-07T07:02:11;31.40;99.90
61004;DHT22;46889;37.310;13.582;2023-09-07T07:04:37;32.20;99.90
61004;DHT22;46889;37.310;13.582;2023-09-07T07:07:02;32.60;99.90
61004;DHT22;46889;37.310;13.582;2023-09-07T07:09:30;32.70;99.90
61004;DHT22;46889;37.310;13.582;2023-09-07T07:11:56;31.90;99.90
61004;DHT22;46889;37.310;13.582;2023-09-07T07:14:22;31.40;99.90
61004;DHT22;46889;37.310;13.582;2023-09-07T07:16:47;31.30;99.90
61004;DHT22;46889;37.310;13.582;2023-09-07T07:19:13;31.80;99.90
61004;DHT22;46889;37.310;13.582;2023-09-07T07:21:39;32.60;99.90
61004;DHT22;46889;37.310;13.582;2023-09-07T07:24:05;32.30;99.90
61004;DHT22;46889;37.310;13.582;2023-09-07T07:26:33;31.30;99.90
61004;DHT22;46889;37.310;13.582;2023-09-07T07:28:59;31.70;99.90
61004;DHT22;46889;37.310;13.582;2023-09-07T07:31:25;31.60;99.90
61004;DHT22;46889;37.310;13.582;2023-09-07T07:33:52;31.10;99.90
61004;DHT22;46889;37.310;13.582;2023-09-07T07:36:18;30.40;99.90
61004;DHT22;46889;37.310;13.582;2023-09-07T07:38:44;30.00;99.90
61004;DHT22;46889;37.310;13.582;2023-09-07T07:41:10;30.10;99.90
61004;DHT22;46889;37.310;13.582;2023-09-07T07:43:36;30.40;99.90
61004;DHT22;46889;37.310;13.582;2023-09-07T07:46:02;30.60;99.90
61004;DHT22;46889;37.310;13.582;2023-09-07T07:48:27;30.30;99.90
61004;DHT22;46889;37.310;13.582;2023-09-07T07:50:55;30.10;99.90
61004;DHT22;46889;37.310;13.582;2023-09-07T07:53:20;30.50;99.90
61004;DHT22;46889;37.310;13.582;2023-09-07T07:55:46;30.30;99.90
61004;DHT22;46889;37.310;13.582;2023-09-07T07:58:14;30.20;99.90
61004;DHT22;46889;37.310;13.582;2023-09-07T08:00:39;30.50;99.90
61004;DHT22;46889;37.310;13.582;2023-09-07T08:03:13;29.60;99.90
61004;DHT22;46889;37.310;13.582;2023-09-07T08:05:38;29.40;99.90
61004;DHT22;46889;37.310;13.582;2023-09-07T08:08:05;29.50;99.90
61004;DHT22;46889;37.310;13.582;2023-09-07T08:10:34;29.80;99.90
61004;DHT22;46889;37.310;13.582;2023-09-07T08:13:01;30.20;99.90
61004;DHT22;46889;37.310;13.582;2023-09-07T08:15:28;30.50;99.90
61004;DHT22;46889;37.310;13.582;2023-09-07T08:17:54;30.00;99.90
61004;DHT22;46889;37.310;13.582;2023-09-07T08:20:20;28.90;99.90
61004;DHT22;46889;37.310;13.582;2023-09-07T08:22:46;28.80;99.90
61004;DHT22;46889;37.310;13.582;2023-09-07T08:25:12;29.40;99.90
61004;DHT22;46889;37.310;13.582;2023-09-07T08:27:39;29.50;99.90
61004;DHT22;46889;37.310;13.582;2023-09-07T08:30:13;29.80;99.90
61004;DHT22;46889;37.310;13.582;2023-09-07T08:32:41;29.50;99.90
61004;DHT22;46889;37.310;13.582;2023-09-07T08:35:08;29.40;99.90
61004;DHT22;46889;37.310;13.582;2023-09-07T08:37:34;29.60;99.90
61004;DHT22;46889;37.310;13.582;2023-09-07T08:40:00;29.90;99.90
61004;DHT22;46889;37.310;13.582;2023-09-07T08:42:27;29.70;99.90
61004;DHT22;46889;37.310;13.582;2023-09-07T08:44:53;29.40;99.90
61004;DHT22;46889;37.310;13.582;2023-09-07T08:47:23;29.10;99.90
61004;DHT22;46889;37.310;13.582;2023-09-07T08:49:50;29.70;99.90
61004;DHT22;46889;37.310;13.582;2023-09-07T08:52:16;29.50;99.90
61004;DHT22;46889;37.310;13.582;2023-09-07T08:54:49;29.60;99.90
61004;DHT22;46889;37.310;13.582;2023-09-07T08:57:15;29.50;99.90
61004;DHT22;46889;37.310;13.582;2023-09-07T08:59:43;29.40;99.90
61004;DHT22;46889;37.310;13.582;2023-09-07T09:02:09;29.80;99.90
61004;DHT22;46889;37.310;13.582;2023-09-07T09:04:36;29.90;99.90
61004;DHT22;46889;37.310;13.582;2023-09-07T09:07:02;30.00;99.90
61004;DHT22;46889;37.310;13.582;2023-09-07T09:09:29;29.90;99.90
61004;DHT22;46889;37.310;13.582;2023-09-07T09:11:55;29.90;99.90
61004;DHT22;46889;37.310;13.582;2023-09-07T09:14:31;30.10;99.90
61004;DHT22;46889;37.310;13.582;2023-09-07T09:16:57;30.50;99.90
61004;DHT22;46889;37.310;13.582;2023-09-07T09:19:32;31.00;99.90
61004;DHT22;46889;37.310;13.582;2023-09-07T09:21:58;30.90;99.90
61004;DHT22;46889;37.310;13.582;2023-09-07T09:24:24;30.60;99.90
61004;DHT22;46889;37.310;13.582;2023-09-07T09:26:50;30.40;99.90
61004;DHT22;46889;37.310;13.582;2023-09-07T09:29:16;30.50;99.90
61004;DHT22;46889;37.310;13.582;2023-09-07T09:31:42;30.70;99.90
61004;DHT22;46889;37.310;13.582;2023-09-07T09:34:08;30.70;99.90
61004;DHT22;46889;37.310;13.582;2023-09-07T09:36:35;30.30;99.90
61004;DHT22;46889;37.310;13.582;2023-09-07T09:39:01;30.30;99.90
61004;DHT22;46889;37.310;13.582;2023-09-07T09:41:32;30.10;99.90
61004;DHT22;46889;37.310;13.582;2023-09-07T09:43:59;30.50;99.90
61004;DHT22;46889;37.310;13.582;2023-09-07T09:46:25;30.70;99.90
61004;DHT22;46889;37.310;13.582;2023-09-07T09:48:51;30.30;99.90
61004;DHT22;46889;37.310;13.582;2023-09-07T09:51:17;30.00;99.90
61004;DHT22;46889;37.310;13.582;2023-09-07T09:53:44;29.90;99.90
61004;DHT22;46889;37.310;13.582;2023-09-07T09:56:10;29.80;99.90
61004;DHT22;46889;37.310;13.582;2023-09-07T09:58:36;30.00;99.90
61004;DHT22;46889;37.310;13.582;2023-09-07T10:01:02;30.00;99.90
61004;DHT22;46889;37.310;13.582;2023-09-07T10:03:32;29.80;99.90
61004;DHT22;46889;37.310;13.582;2023-09-07T10:06:10;29.90;99.90
61004;DHT22;46889;37.310;13.582;2023-09-07T10:08:36;30.20;99.90
61004;DHT22;46889;37.310;13.582;2023-09-07T10:11:08;29.80;99.90
61004;DHT22;46889;37.310;13.582;2023-09-07T10:13:37;30.00;99.90
61004;DHT22;46889;37.310;13.582;2023-09-07T10:16:03;30.20;99.90
61004;DHT22;46889;37.310;13.582;2023-09-07T10:18:33;29.90;99.90
61004;DHT22;46889;37.310;13.582;2023-09-07T10:20:59;29.90;99.90
61004;DHT22;46889;37.310;13.582;2023-09-07T10:26:13;30.10;99.90
61004;DHT22;46889;37.310;13.582;2023-09-07T10:28:39;29.80;99.90
61004;DHT22;46889;37.310;13.582;2023-09-07T10:31:06;29.90;99.90
61004;DHT22;46889;37.310;13.582;2023-09-07T10:33:33;29.90;99.90
61004;DHT22;46889;37.310;13.582;2023-09-07T10:35:59;29.70;99.90
61004;DHT22;46889;37.310;13.582;2023-09-07T10:38:25;29.90;99.90
61004;DHT22;46889;37.310;13.582;2023-09-07T10:40:57;29.90;99.90
61004;DHT22;46889;37.310;13.582;2023-09-07T10:43:27;30.10;99.90
61004;DHT22;46889;37.310;13.582;2023-09-07T10:45:56;30.20;99.90
61004;DHT22;46889;37.310;13.582;2023-09-07T10:48:23;29.60;99.90
61004;DHT22;46889;37.310;13.582;2023-09-07T10:50:49;29.70;99.90
61004;DHT22;46889;37.310;13.582;2023-09-07T10:53:26;29.60;99.90
61004;DHT22;46889;37.310;13.582;2023-09-07T10:55:59;29.50;99.90
61004;DHT22;46889;37.310;13.582;2023-09-07T10:58:25;29.60;99.90
61004;DHT22;46889;37.310;13.582;2023-09-07T11:00:52;30.00;99.90
61004;DHT22;46889;37.310;13.582;2023-09-07T11:03:18;30.30;99.90
61004;DHT22;46889;37.310;13.582;2023-09-07T11:05:44;29.90;99.90
61004;DHT22;46889;37.310;13.582;2023-09-07T11:08:10;30.00;99.90
61004;DHT22;46889;37.310;13.582;2023-09-07T11:10:36;29.90;99.90
61004;DHT22;46889;37.310;13.582;2023-09-07T11:13:05;29.70;99.90
61004;DHT22;46889;37.310;13.582;2023-09-07T11:15:32;29.70;99.90
61004;DHT22;46889;37.310;13.582;2023-09-07T11:18:08;30.10;99.90
61004;DHT22;46889;37.310;13.582;2023-09-07T11:20:36;29.90;99.90
61004;DHT22;46889;37.310;13.582;2023-09-07T11:23:05;29.70;99.90
61004;DHT22;46889;37.310;13.582;2023-09-07T11:25:38;29.80;99.90
61004;DHT22;46889;37.310;13.582;2023-09-07T11:28:04;30.00;99.90
61004;DHT22;46889;37.310;13.582;2023-09-07T11:30:31;29.90;99.90
61004;DHT22;46889;37.310;13.582;2023-09-07T11:33:02;30.00;99.90
61004;DHT22;46889;37.310;13.582;2023-09-07T11:35:29;30.00;99.90
61004;DHT22;46889;37.310;13.582;2023-09-07T11:37:55;29.90;99.90
61004;DHT22;46889;37.310;13.582;2023-09-07T11:40:21;29.80;99.90
61004;DHT22;46889;37.310;13.582;2023-09-07T11:42:47;29.70;99.90
61004;DHT22;46889;37.310;13.582;2023-09-07T11:45:13;29.40;99.90
61004;DHT22;46889;37.310;13.582;2023-09-07T11:47:39;29.20;99.90
61004;DHT22;46889;37.310;13.582;2023-09-07T11:50:05;29.00;99.90
61004;DHT22;46889;37.310;13.582;2023-09-07T11:52:32;28.90;99.90
61004;DHT22;46889;37.310;13.582;2023-09-07T11:54:57;28.80;99.90
61004;DHT22;46889;37.310;13.582;2023-09-07T11:57:23;28.80;99.90
61004;DHT22;46889;37.310;13.582;2023-09-07T11:59:50;29.00;99.90
61004;DHT22;46889;37.310;13.582;2023-09-07T12:02:16;29.00;99.90
61004;DHT22;46889;37.310;13.582;2023-09-07T12:04:43;29.00;99.90
61004;DHT22;46889;37.310;13.582;2023-09-07T12:07:09;29.00;99.90
61004;DHT22;46889;37.310;13.582;2023-09-07T12:09:35;28.80;99.90
61004;DHT22;46889;37.310;13.582;2023-09-07T12:12:02;28.80;99.90
61004;DHT22;46889;37.310;13.582;2023-09-07T12:14:29;29.30;99.90
61004;DHT22;46889;37.310;13.582;2023-09-07T12:16:54;29.40;99.90
61004;DHT22;46889;37.310;13.582;2023-09-07T12:19:20;29.40;99.90
61004;DHT22;46889;37.310;13.582;2023-09-07T12:21:46;29.00;99.90
61004;DHT22;46889;37.310;13.582;2023-09-07T12:24:12;29.10;99.90
61004;DHT22;46889;37.310;13.582;2023-09-07T12:26:38;29.00;99.90
61004;DHT22;46889;37.310;13.582;2023-09-07T12:29:04;29.30;99.90
61004;DHT22;46889;37.310;13.582;2023-09-07T12:31:30;29.40;99.90
61004;DHT22;46889;37.310;13.582;2023-09-07T12:33:56;29.50;99.90
61004;DHT22;46889;37.310;13.582;2023-09-07T12:36:22;29.40;99.90
61004;DHT22;46889;37.310;13.582;2023-09-07T12:38:48;29.30;99.90
61004;DHT22;46889;37.310;13.582;2023-09-07T12:41:14;29.40;99.90
61004;DHT22;46889;37.310;13.582;2023-09-07T12:43:41;29.50;99.90
61004;DHT22;46889;37.310;13.582;2023-09-07T12:46:08;29.70;99.90
61004;DHT22;46889;37.310;13.582;2023-09-07T12:48:34;29.90;99.90
61004;DHT22;46889;37.310;13.582;2023-09-07T12:51:00;30.20;99.90
61004;DHT22;46889;37.310;13.582;2023-09-07T12:53:26;30.20;99.90
61004;DHT22;46889;37.310;13.582;2023-09-07T12:55:52;30.10;99.90
61004;DHT22;46889;37.310;13.582;2023-09-07T12:58:18;29.90;99.90
61004;DHT22;46889;37.310;13.582;2023-09-07T13:00:44;29.70;99.90
61004;DHT22;46889;37.310;13.582;2023-09-07T13:03:10;29.60;99.90
61004;DHT22;46889;37.310;13.582;2023-09-07T13:05:38;29.40;99.90
61004;DHT22;46889;37.310;13.582;2023-09-07T13:08:04;29.10;99.90
61004;DHT22;46889;37.310;13.582;2023-09-07T13:10:29;28.80;99.90
61004;DHT22;46889;37.310;13.582;2023-09-07T13:12:55;28.50;99.90
61004;DHT22;46889;37.310;13.582;2023-09-07T13:15:21;28.40;99.90
61004;DHT22;46889;37.310;13.582;2023-09-07T13:17:48;28.20;99.90
61004;DHT22;46889;37.310;13.582;2023-09-07T13:20:13;27.90;99.90
61004;DHT22;46889;37.310;13.582;2023-09-07T13:22:39;27.80;99.90
61004;DHT22;46889;37.310;13.582;2023-09-07T13:25:05;27.60;99.90
61004;DHT22;46889;37.310;13.582;2023-09-07T13:27:31;27.60;99.90
61004;DHT22;46889;37.310;13.582;2023-09-07T13:29:57;27.30;99.90
61004;DHT22;46889;37.310;13.582;2023-09-07T13:32:23;26.90;99.90
61004;DHT22;46889;37.310;13.582;2023-09-07T13:34:50;26.50;99.90
61004;DHT22;46889;37.310;13.582;2023-09-07T13:37:16;26.60;99.90
61004;DHT22;46889;37.310;13.582;2023-09-07T13:39:41;26.80;99.90
61004;DHT22;46889;37.310;13.582;2023-09-07T13:42:07;27.00;99.90
61004;DHT22;46889;37.310;13.582;2023-09-07T13:44:33;26.70;99.90
61004;DHT22;46889;37.310;13.582;2023-09-07T13:46:59;26.70;99.90
61004;DHT22;46889;37.310;13.582;2023-09-07T13:49:25;26.30;99.90
61004;DHT22;46889;37.310;13.582;2023-09-07T13:51:51;26.20;99.90
61004;DHT22;46889;37.310;13.582;2023-09-07T13:54:17;26.30;99.90
61004;DHT22;46889;37.310;13.582;2023-09-07T13:56:42;26.30;99.90
61004;DHT22;46889;37.310;13.582;2023-09-07T13:59:10;26.30;99.90
61004;DHT22;46889;37.310;13.582;2023-09-07T14:01:37;26.30;99.90
61004;DHT22;46889;37.310;13.582;2023-09-07T14:04:03;26.10;99.90
61004;DHT22;46889;37.310;13.582;2023-09-07T14:06:29;26.00;99.90
61004;DHT22;46889;37.310;13.582;2023-09-07T14:08:55;25.70;99.90
61004;DHT22;46889;37.310;13.582;2023-09-07T14:11:21;25.40;99.90
61004;DHT22;46889;37.310;13.582;2023-09-07T14:13:48;25.40;99.90
61004;DHT22;46889;37.310;13.582;2023-09-07T14:16:19;25.40;99.90
61004;DHT22;46889;37.310;13.582;2023-09-07T14:18:47;25.40;99.90
61004;DHT22;46889;37.310;13.582;2023-09-07T14:21:14;25.20;99.90
61004;DHT22;46889;37.310;13.582;2023-09-07T14:23:40;25.10;99.90
61004;DHT22;46889;37.310;13.582;2023-09-07T14:26:06;25.10;99.90
61004;DHT22;46889;37.310;13.582;2023-09-07T14:28:31;24.90;99.90
61004;DHT22;46889;37.310;13.582;2023-09-07T14:30:57;24.80;99.90
61004;DHT22;46889;37.310;13.582;2023-09-07T14:33:28;24.60;99.90
61004;DHT22;46889;37.310;13.582;2023-09-07T14:35:54;24.60;99.90
61004;DHT22;46889;37.310;13.582;2023-09-07T14:38:20;24.80;99.90
61004;DHT22;46889;37.310;13.582;2023-09-07T14:40:46;24.80;99.90
61004;DHT22;46889;37.310;13.582;2023-09-07T14:43:14;25.10;99.90
61004;DHT22;46889;37.310;13.582;2023-09-07T14:45:40;25.60;99.90
61004;DHT22;46889;37.310;13.582;2023-09-07T14:48:06;25.70;99.90
61004;DHT22;46889;37.310;13.582;2023-09-07T14:50:31;25.80;99.90
61004;DHT22;46889;37.310;13.582;2023-09-07T14:52:57;25.60;99.90
61004;DHT22;46889;37.310;13.582;2023-09-07T14:55:23;25.50;99.90
61004;DHT22;46889;37.310;13.582;2023-09-07T14:57:49;25.50;99.90
61004;DHT22;46889;37.310;13.582;2023-09-07T15:00:15;25.70;99.90
61004;DHT22;46889;37.310;13.582;2023-09-07T15:02:40;25.40;99.90
61004;DHT22;46889;37.310;13.582;2023-09-07T15:05:06;25.60;99.90
61004;DHT22;46889;37.310;13.582;2023-09-07T15:07:32;25.70;99.90
61004;DHT22;46889;37.310;13.582;2023-09-07T15:09:58;25.90;99.90
61004;DHT22;46889;37.310;13.582;2023-09-07T15:12:24;25.90;99.90